createdAt,value
2019-03-01T00:01:29.533Z,27.40
2019-03-01T00:04:02.226Z,30.80
2019-03-01T00:06:47.814Z,26.93
2019-03-01T00:10:05.193Z,23.27
2019-03-01T00:13:12.535Z,24.93
2019-03-01T00:15:54.921Z,28.40
2019-03-01T00:18:59.481Z,29.37
2019-03-01T00:21:54.245Z,28.27
2019-03-01T00:24:55.312Z,26.30
2019-03-01T00:27:51.078Z,26.27
2019-03-01T00:31:13.206Z,24.83
2019-03-01T00:34:04.406Z,25.13
2019-03-01T00:36:58.666Z,26.73
2019-03-01T00:40:01.826Z,25.17
2019-03-01T00:43:21.306Z,18.70
2019-03-01T00:48:30.846Z,20.90
2019-03-01T00:50:59.603Z,25.03
2019-03-01T00:53:28.374Z,19.53
2019-03-01T00:55:57.162Z,19.40
2019-03-01T00:58:25.969Z,20.43
2019-03-01T01:00:55.111Z,17.57
2019-03-01T01:03:23.874Z,20.73
2019-03-01T01:05:52.807Z,18.33
2019-03-01T01:08:21.588Z,17.47
2019-03-01T01:10:50.618Z,15.10
2019-03-01T01:13:19.389Z,14.70
2019-03-01T01:15:48.177Z,19.57
2019-03-01T01:18:16.958Z,12.47
2019-03-01T01:20:45.991Z,13.83
2019-03-01T01:23:14.908Z,11.97
2019-03-01T01:25:43.721Z,11.47
2019-03-01T01:28:12.555Z,12.80
2019-03-01T01:30:41.346Z,12.50
2019-03-01T01:33:10.114Z,14.07
2019-03-01T01:35:38.890Z,14.27
2019-03-01T01:38:07.659Z,13.50
2019-03-01T01:40:36.803Z,12.30
2019-03-01T01:43:05.769Z,10.47
2019-03-01T01:45:34.663Z,14.30
2019-03-01T01:48:03.445Z,12.53
2019-03-01T01:50:32.306Z,17.33
2019-03-01T01:53:01.081Z,18.03
2019-03-01T01:55:29.950Z,16.40
2019-03-01T01:57:58.762Z,14.73
2019-03-01T02:00:27.619Z,15.83
2019-03-01T02:02:56.378Z,14.23
2019-03-01T02:05:25.224Z,14.87
2019-03-01T02:07:54.007Z,13.03
2019-03-01T02:10:22.976Z,17.73
2019-03-01T02:12:51.816Z,16.00
2019-03-01T02:15:20.602Z,16.20
2019-03-01T02:17:49.366Z,13.23
2019-03-01T02:20:18.174Z,14.13
2019-03-01T02:22:46.938Z,14.20
2019-03-01T02:25:16.121Z,16.37
2019-03-01T02:27:44.887Z,12.70
2019-03-01T02:30:16.538Z,16.47
2019-03-01T02:32:52.300Z,13.67
2019-03-01T02:35:22.880Z,13.57
2019-03-01T02:37:51.745Z,14.73
2019-03-01T02:40:21.023Z,12.23
2019-03-01T02:42:49.913Z,12.47
2019-03-01T02:45:20.186Z,11.37
2019-03-01T02:47:49.087Z,12.97
2019-03-01T02:50:18.766Z,12.97
2019-03-01T02:52:47.654Z,16.13
2019-03-01T02:55:17.395Z,19.30
2019-03-01T02:57:46.326Z,21.37
2019-03-01T03:00:20.256Z,18.27
2019-03-01T03:02:49.102Z,13.90
2019-03-01T03:05:18.012Z,14.53
2019-03-01T03:07:51.570Z,16.10
2019-03-01T03:10:20.783Z,15.03
2019-03-01T03:12:50.501Z,16.00
2019-03-01T03:15:25.758Z,12.27
2019-03-01T03:17:54.626Z,17.43
2019-03-01T03:20:23.645Z,22.73
2019-03-01T03:22:52.713Z,18.63
2019-03-01T03:25:21.478Z,19.03
2019-03-01T03:27:50.268Z,17.80
2019-03-01T03:30:19.179Z,15.67
2019-03-01T03:32:48.242Z,20.60
2019-03-01T03:35:17.031Z,15.60
2019-03-01T03:37:46.083Z,13.77
2019-03-01T03:40:15.111Z,17.17
2019-03-01T03:42:44.085Z,16.43
2019-03-01T03:45:13.387Z,17.27
2019-03-01T03:47:42.233Z,16.10
2019-03-01T03:50:11.898Z,11.90
2019-03-01T03:52:40.799Z,14.20
2019-03-01T03:55:11.401Z,21.50
2019-03-01T03:57:40.511Z,17.30
2019-03-01T04:00:13.201Z,19.00
2019-03-01T04:02:42.613Z,19.30
2019-03-01T04:05:11.809Z,31.77
2019-03-01T04:07:40.743Z,21.50
2019-03-01T04:10:09.696Z,14.00
2019-03-01T04:12:38.637Z,17.37
2019-03-01T04:15:08.792Z,9.87
2019-03-01T04:17:37.578Z,10.90
2019-03-01T04:20:08.013Z,14.43
2019-03-01T04:22:36.879Z,15.43
2019-03-01T04:25:06.194Z,10.53
2019-03-01T04:27:35.018Z,12.90
2019-03-01T04:30:03.973Z,12.57
2019-03-01T04:32:32.742Z,14.73
2019-03-01T04:35:01.535Z,15.37
2019-03-01T04:37:30.442Z,14.13
2019-03-01T04:39:59.222Z,13.97
2019-03-01T04:42:28.122Z,8.90
2019-03-01T04:44:56.987Z,10.33
2019-03-01T04:47:25.815Z,12.53
2019-03-01T04:49:54.906Z,11.40
2019-03-01T04:52:37.079Z,11.43
2019-03-01T04:55:11.161Z,16.53
2019-03-01T04:57:40.002Z,14.57
2019-03-01T05:00:12.398Z,13.63
2019-03-01T05:02:41.322Z,17.03
2019-03-01T05:05:10.543Z,16.50
2019-03-01T05:07:39.441Z,18.10
2019-03-01T05:10:09.236Z,19.00
2019-03-01T05:12:38.031Z,19.90
2019-03-01T05:15:07.645Z,13.60
2019-03-01T05:17:36.542Z,18.83
2019-03-01T05:20:05.807Z,15.73
2019-03-01T05:22:34.631Z,15.17
2019-03-01T05:25:03.606Z,17.50
2019-03-01T05:27:32.583Z,16.17
2019-03-01T05:30:01.426Z,13.00
2019-03-01T05:32:30.286Z,14.20
2019-03-01T05:34:59.081Z,12.53
2019-03-01T05:37:27.852Z,11.20
2019-03-01T05:39:56.638Z,10.20
2019-03-01T05:42:25.409Z,11.40
2019-03-01T05:44:54.190Z,34.30
2019-03-01T05:47:23.091Z,15.80
2019-03-01T05:49:51.893Z,12.50
2019-03-01T05:52:20.661Z,14.70
2019-03-01T05:54:49.764Z,15.13
2019-03-01T05:57:18.522Z,9.90
2019-03-01T05:59:47.345Z,12.57
2019-03-01T06:03:07.022Z,10.07
2019-03-01T06:05:38.539Z,7.63
2019-03-01T06:08:41.926Z,9.63
2019-03-01T06:11:49.195Z,9.00
2019-03-01T06:14:46.335Z,11.67
2019-03-01T06:17:38.104Z,12.30
2019-03-01T06:20:53.554Z,11.07
2019-03-01T06:23:27.643Z,9.47
2019-03-01T06:26:46.356Z,10.87
2019-03-01T06:29:49.098Z,7.43
2019-03-01T06:32:45.126Z,11.77
2019-03-01T06:35:27.133Z,10.27
2019-03-01T06:38:48.754Z,10.17
2019-03-01T06:41:51.843Z,8.57
2019-03-01T06:45:09.982Z,9.97
2019-03-01T06:47:44.620Z,10.70
2019-03-01T06:50:31.316Z,14.63
2019-03-01T06:53:00.097Z,12.90
2019-03-01T06:55:45.825Z,13.10
2019-03-01T06:58:20.753Z,9.23
2019-03-01T07:00:53.094Z,8.97
2019-03-01T07:03:22.490Z,8.60
2019-03-01T07:05:51.247Z,8.43
2019-03-01T07:08:20.145Z,8.13
2019-03-01T07:10:49.241Z,7.30
2019-03-01T07:13:18.860Z,7.60
2019-03-01T07:15:47.651Z,6.60
2019-03-01T07:18:16.426Z,6.73
2019-03-01T07:20:45.264Z,8.13
2019-03-01T07:23:14.049Z,5.57
2019-03-01T07:25:42.851Z,5.53
2019-03-01T07:28:11.619Z,4.50
2019-03-01T07:30:40.384Z,6.77
2019-03-01T07:33:09.185Z,5.10
2019-03-01T07:35:42.474Z,5.07
2019-03-01T07:38:11.257Z,5.17
2019-03-01T07:40:40.107Z,7.23
2019-03-01T07:43:08.884Z,8.50
2019-03-01T07:45:37.644Z,9.33
2019-03-01T07:48:06.833Z,7.17
2019-03-01T07:50:35.699Z,5.43
2019-03-01T07:53:04.819Z,6.20
2019-03-01T07:55:33.790Z,6.13
2019-03-01T07:58:02.559Z,6.27
2019-03-01T08:00:31.370Z,8.73
2019-03-01T08:03:00.225Z,4.83
2019-03-01T08:05:29.065Z,5.60
2019-03-01T08:08:02.571Z,4.17
2019-03-01T08:10:28.598Z,3.20
2019-03-01T08:12:57.354Z,3.20
2019-03-01T08:15:26.202Z,4.43
2019-03-01T08:17:54.966Z,3.20
2019-03-01T08:20:23.742Z,2.70
2019-03-01T08:22:52.506Z,3.07
2019-03-01T08:25:23.413Z,4.10
2019-03-01T08:27:51.758Z,4.87
2019-03-01T08:30:20.703Z,5.47
2019-03-01T08:32:49.543Z,6.73
2019-03-01T08:35:18.502Z,9.77
2019-03-01T08:37:49.818Z,6.80
2019-03-01T08:40:18.172Z,7.97
2019-03-01T08:42:46.910Z,7.53
2019-03-01T08:45:16.823Z,9.43
2019-03-01T08:47:45.735Z,10.87
2019-03-01T08:50:15.633Z,11.30
2019-03-01T08:52:44.535Z,10.60
2019-03-01T08:55:15.357Z,8.97
2019-03-01T08:57:44.740Z,11.13
2019-03-01T09:00:32.937Z,12.67
2019-03-01T09:03:17.237Z,12.00
2019-03-01T09:05:45.957Z,10.00
2019-03-01T09:08:14.714Z,13.87
2019-03-01T09:10:43.831Z,11.60
2019-03-01T09:13:12.601Z,13.33
2019-03-01T09:15:41.371Z,14.97
2019-03-01T09:18:11.616Z,15.17
2019-03-01T09:20:40.876Z,16.17
2019-03-01T09:23:21.155Z,17.93
2019-03-01T09:25:41.436Z,17.90
2019-03-01T09:28:11.193Z,19.70
2019-03-01T09:30:43.534Z,20.10
2019-03-01T09:33:11.310Z,20.10
2019-03-01T09:35:53.618Z,20.43
2019-03-01T09:38:22.479Z,19.33
2019-03-01T09:40:51.324Z,20.80
2019-03-01T09:43:20.106Z,18.57
2019-03-01T09:45:49.552Z,19.83
2019-03-01T09:48:18.688Z,22.60
2019-03-01T09:50:47.483Z,25.27
2019-03-01T09:53:16.341Z,23.63
2019-03-01T09:55:45.271Z,23.73
2019-03-01T09:58:14.105Z,20.10
2019-03-01T10:00:55.643Z,19.10
2019-03-01T10:03:16.087Z,20.90
2019-03-01T10:05:44.918Z,19.37
2019-03-01T10:08:13.695Z,20.37
2019-03-01T10:10:42.483Z,19.47
2019-03-01T10:13:11.289Z,20.03
2019-03-01T10:15:40.213Z,19.57
2019-03-01T10:18:09.016Z,20.13
2019-03-01T10:20:37.846Z,18.67
2019-03-01T10:23:06.688Z,18.47
2019-03-01T10:25:35.494Z,19.83
2019-03-01T10:28:04.333Z,21.50
2019-03-01T10:30:33.197Z,23.83
2019-03-01T10:33:02.073Z,18.40
2019-03-01T10:35:30.962Z,18.67
2019-03-01T10:37:59.739Z,18.13
2019-03-01T10:40:28.610Z,20.07
2019-03-01T10:42:57.369Z,23.63
2019-03-01T10:45:26.324Z,24.23
2019-03-01T10:47:55.098Z,27.47
2019-03-01T10:50:24.322Z,30.13
2019-03-01T10:52:53.246Z,30.87
2019-03-01T10:55:22.489Z,31.30
2019-03-01T10:57:51.367Z,40.77
2019-03-01T11:00:21.938Z,34.73
2019-03-01T11:02:51.045Z,37.23
2019-03-01T11:05:20.158Z,38.60
2019-03-01T11:07:50.030Z,50.73
2019-03-01T11:10:30.226Z,50.70
2019-03-01T11:12:59.033Z,63.63
2019-03-01T11:15:27.980Z,84.00
2019-03-01T11:17:56.773Z,95.90
2019-03-01T11:20:25.829Z,112.80
2019-03-01T11:22:54.907Z,127.43
2019-03-01T11:25:23.701Z,134.67
2019-03-01T11:27:53.522Z,141.40
2019-03-01T11:30:24.578Z,145.27
2019-03-01T11:32:53.431Z,125.53
2019-03-01T11:35:22.220Z,132.60
2019-03-01T11:37:51.322Z,139.53
2019-03-01T11:40:22.403Z,129.50
2019-03-01T11:42:51.253Z,137.27
2019-03-01T11:45:20.043Z,120.33
2019-03-01T11:47:48.840Z,108.80
2019-03-01T11:50:19.385Z,120.77
2019-03-01T11:52:48.261Z,111.83
2019-03-01T11:55:17.220Z,118.37
2019-03-01T11:57:46.146Z,103.17
2019-03-01T12:00:18.638Z,114.13
2019-03-01T12:02:48.747Z,109.17
2019-03-01T12:05:17.725Z,105.87
2019-03-01T12:07:46.657Z,119.70
2019-03-01T12:10:20.492Z,125.33
2019-03-01T12:12:49.421Z,128.03
2019-03-01T12:15:18.343Z,122.00
2019-03-01T12:17:47.461Z,119.50
2019-03-01T12:20:17.737Z,110.87
2019-03-01T12:22:46.580Z,114.53
2019-03-01T12:25:15.423Z,110.23
2019-03-01T12:27:44.589Z,99.40
2019-03-01T12:30:15.754Z,93.83
2019-03-01T12:32:45.025Z,93.27
2019-03-01T12:35:13.987Z,104.47
2019-03-01T12:37:42.912Z,88.13
2019-03-01T12:40:14.794Z,83.07
2019-03-01T12:42:45.575Z,86.57
2019-03-01T12:45:14.904Z,92.73
2019-03-01T12:47:43.793Z,80.27
2019-03-01T12:50:12.875Z,84.50
2019-03-01T12:52:41.753Z,73.40
2019-03-01T12:55:12.762Z,67.80
2019-03-01T12:57:41.570Z,66.20
2019-03-01T13:00:15.754Z,59.77
2019-03-01T13:02:44.926Z,68.70
2019-03-01T13:05:13.798Z,67.27
2019-03-01T13:07:42.828Z,65.73
2019-03-01T13:10:20.426Z,67.87
2019-03-01T13:12:50.027Z,77.90
2019-03-01T13:15:18.972Z,51.87
2019-03-01T13:17:49.896Z,61.60
2019-03-01T13:20:18.462Z,62.73
2019-03-01T13:22:47.309Z,53.40
2019-03-01T13:25:16.283Z,63.67
2019-03-01T13:27:45.087Z,156.73
2019-03-01T13:30:16.057Z,68.67
2019-03-01T13:32:44.946Z,145.33
2019-03-01T13:35:14.103Z,63.63
2019-03-01T13:37:42.963Z,58.97
2019-03-01T13:40:13.497Z,71.17
2019-03-01T13:42:42.383Z,84.17
2019-03-01T13:45:15.018Z,73.30
2019-03-01T13:47:44.886Z,68.50
2019-03-01T13:50:14.665Z,61.73
2019-03-01T13:52:43.504Z,66.00
2019-03-01T13:55:12.430Z,79.43
2019-03-01T13:57:41.398Z,69.63
2019-03-01T14:00:12.685Z,52.63
2019-03-01T14:02:43.048Z,58.53
2019-03-01T14:05:13.301Z,48.80
2019-03-01T14:07:42.682Z,55.60
2019-03-01T14:10:12.991Z,52.87
2019-03-01T14:12:41.951Z,51.17
2019-03-01T14:15:12.934Z,48.13
2019-03-01T14:17:41.727Z,42.47
2019-03-01T14:20:19.059Z,43.90
2019-03-01T14:22:47.838Z,48.80
2019-03-01T14:25:17.226Z,37.97
2019-03-01T14:27:46.396Z,38.37
2019-03-01T14:30:17.066Z,35.33
2019-03-01T14:32:45.898Z,33.27
2019-03-01T14:35:14.959Z,37.83
2019-03-01T14:37:43.742Z,33.27
2019-03-01T14:40:13.461Z,34.73
2019-03-01T14:42:46.506Z,42.80
2019-03-01T14:45:15.643Z,43.40
2019-03-01T14:47:44.424Z,42.30
2019-03-01T14:50:14.634Z,47.03
2019-03-01T14:52:43.578Z,39.03
2019-03-01T14:55:14.998Z,43.23
2019-03-01T14:57:47.404Z,40.50
2019-03-01T15:00:55.353Z,41.37
2019-03-01T15:03:37.782Z,37.33
2019-03-01T15:06:08.166Z,46.30
2019-03-01T15:08:40.479Z,42.83
2019-03-01T15:11:22.251Z,45.83
2019-03-01T15:13:52.576Z,44.37
2019-03-01T15:16:21.552Z,48.17
2019-03-01T15:18:50.461Z,68.67
2019-03-01T15:21:19.356Z,43.47
2019-03-01T15:23:48.124Z,48.93
2019-03-01T15:26:16.931Z,44.40
2019-03-01T15:28:53.677Z,49.90
2019-03-01T15:31:18.384Z,49.20
2019-03-01T15:33:48.402Z,44.70
2019-03-01T15:36:17.785Z,48.27
2019-03-01T15:38:47.929Z,40.37
2019-03-01T15:41:16.809Z,40.97
2019-03-01T15:43:45.854Z,50.87
2019-03-01T15:46:15.423Z,48.73
2019-03-01T15:48:44.577Z,42.40
2019-03-01T15:51:13.397Z,44.17
2019-03-01T15:53:42.612Z,39.60
2019-03-01T15:56:11.555Z,43.50
2019-03-01T15:58:40.333Z,38.10
2019-03-01T16:01:11.923Z,39.27
2019-03-01T16:03:41.180Z,46.57
2019-03-01T16:06:10.604Z,34.90
2019-03-01T16:08:44.016Z,41.00
2019-03-01T16:11:12.664Z,35.13
2019-03-01T16:13:47.779Z,40.07
2019-03-01T16:16:13.690Z,43.57
2019-03-01T16:18:43.370Z,52.83
2019-03-01T16:21:12.296Z,59.40
2019-03-01T16:23:41.160Z,39.07
2019-03-01T16:26:10.050Z,36.40
2019-03-01T16:28:38.890Z,34.73
2019-03-01T16:31:07.693Z,38.00
2019-03-01T16:33:36.528Z,35.20
2019-03-01T16:36:10.274Z,37.87
2019-03-01T16:38:41.154Z,36.40
2019-03-01T16:41:09.873Z,37.40
2019-03-01T16:43:39.015Z,35.87
2019-03-01T16:46:07.787Z,41.27
2019-03-01T16:48:36.589Z,38.73
2019-03-01T16:51:05.365Z,31.83
2019-03-01T16:53:36.684Z,28.50
2019-03-01T16:56:04.867Z,29.53
2019-03-01T16:58:34.103Z,26.70
2019-03-01T17:01:02.877Z,27.30
2019-03-01T17:03:31.997Z,25.70
2019-03-01T17:06:00.794Z,24.43
2019-03-01T17:08:29.835Z,28.13
2019-03-01T17:10:58.690Z,27.47
2019-03-01T17:13:28.130Z,34.43
2019-03-01T17:15:57.066Z,34.10
2019-03-01T17:18:26.146Z,35.70
2019-03-01T17:20:54.929Z,35.80
2019-03-01T17:23:23.713Z,27.70
2019-03-01T17:25:52.490Z,33.07
2019-03-01T17:28:23.667Z,34.77
2019-03-01T17:30:51.992Z,34.43
2019-03-01T17:33:20.897Z,41.30
2019-03-01T17:35:49.690Z,37.33
2019-03-01T17:38:18.494Z,37.10
2019-03-01T17:40:47.351Z,35.93
2019-03-01T17:43:16.145Z,34.40
2019-03-01T17:45:44.989Z,32.73
2019-03-01T17:48:13.834Z,32.60
2019-03-01T17:50:44.688Z,34.07
2019-03-01T17:53:13.435Z,36.73
2019-03-01T17:55:42.310Z,37.03
2019-03-01T17:58:11.318Z,43.37
2019-03-01T18:00:40.925Z,51.53
2019-03-01T18:03:09.974Z,56.80
2019-03-01T18:05:40.641Z,70.90
2019-03-01T18:08:09.642Z,65.67
2019-03-01T18:10:38.425Z,64.63
2019-03-01T18:13:07.308Z,64.77
2019-03-01T18:15:36.101Z,60.13
2019-03-01T18:18:04.898Z,60.07
2019-03-01T18:20:37.196Z,53.47
2019-03-01T18:23:04.267Z,57.73
2019-03-01T18:25:33.425Z,42.13
2019-03-01T18:28:03.765Z,36.23
2019-03-01T18:30:32.630Z,37.57
2019-03-01T18:33:01.538Z,34.20
2019-03-01T18:35:30.363Z,35.97
2019-03-01T18:37:59.418Z,38.40
2019-03-01T18:40:28.365Z,34.10
2019-03-01T18:42:57.578Z,40.60
2019-03-01T18:45:26.510Z,35.60
2019-03-01T18:47:55.879Z,38.47
2019-03-01T18:50:27.661Z,42.30
2019-03-01T18:52:57.385Z,42.07
2019-03-01T18:55:26.275Z,40.80
2019-03-01T18:57:55.133Z,40.13
2019-03-01T19:00:26.553Z,46.53
2019-03-01T19:02:57.437Z,39.77
2019-03-01T19:05:25.997Z,45.43
2019-03-01T19:07:54.774Z,50.83
2019-03-01T19:10:24.008Z,42.17
2019-03-01T19:12:54.218Z,44.10
2019-03-01T19:15:23.073Z,40.63
2019-03-01T19:17:51.921Z,46.20
2019-03-01T19:20:22.628Z,45.50
2019-03-01T19:22:51.473Z,42.27
2019-03-01T19:25:21.623Z,38.57
2019-03-01T19:27:51.815Z,40.10
2019-03-01T19:30:21.922Z,45.47
2019-03-01T19:32:50.854Z,41.87
2019-03-01T19:35:19.705Z,43.27
2019-03-01T19:37:49.661Z,44.93
2019-03-01T19:40:19.220Z,42.40
2019-03-01T19:42:48.092Z,41.80
2019-03-01T19:45:17.641Z,46.50
2019-03-01T19:47:46.822Z,42.43
2019-03-01T19:50:17.410Z,45.90
2019-03-01T19:52:47.050Z,40.93
2019-03-01T19:55:16.983Z,45.77
2019-03-01T19:57:45.854Z,44.07
2019-03-01T20:00:17.106Z,50.50
2019-03-01T20:02:46.066Z,39.60
2019-03-01T20:05:16.649Z,40.77
2019-03-01T20:07:45.512Z,51.67
2019-03-01T20:10:16.048Z,46.43
2019-03-01T20:12:44.971Z,38.50
2019-03-01T20:15:20.434Z,45.63
2019-03-01T20:17:49.037Z,39.17
2019-03-01T20:20:18.792Z,43.93
2019-03-01T20:22:50.498Z,39.50
2019-03-01T20:25:18.238Z,44.53
2019-03-01T20:27:47.101Z,36.57
2019-03-01T20:30:18.018Z,44.20
2019-03-01T20:32:47.385Z,38.87
2019-03-01T20:35:17.594Z,38.10
2019-03-01T20:37:46.538Z,38.07
2019-03-01T20:40:15.497Z,37.87
2019-03-01T20:42:44.364Z,46.13
2019-03-01T20:45:15.911Z,40.13
2019-03-01T20:47:44.856Z,40.93
2019-03-01T20:50:15.709Z,35.27
2019-03-01T20:52:44.447Z,37.90
2019-03-01T20:55:13.681Z,38.67
2019-03-01T20:57:42.454Z,40.63
2019-03-01T21:00:13.244Z,31.87
2019-03-01T21:02:42.086Z,33.67
2019-03-01T21:05:11.341Z,69.83
2019-03-01T21:07:40.203Z,35.97
2019-03-01T21:10:15.714Z,37.73
2019-03-01T21:12:43.045Z,35.60
2019-03-01T21:15:12.053Z,37.97
2019-03-01T21:17:41.010Z,35.60
2019-03-01T21:20:10.964Z,31.77
2019-03-01T21:22:40.779Z,35.47
2019-03-01T21:25:11.662Z,31.10
2019-03-01T21:27:40.521Z,39.63
2019-03-01T21:30:13.017Z,33.00
2019-03-01T21:32:41.941Z,36.20
2019-03-01T21:35:13.590Z,35.73
2019-03-01T21:37:41.343Z,35.43
2019-03-01T21:40:10.395Z,34.03
2019-03-01T21:42:39.299Z,30.90
2019-03-01T21:45:09.561Z,38.43
2019-03-01T21:47:38.323Z,29.77
2019-03-01T21:50:07.805Z,31.33
2019-03-01T21:52:36.745Z,30.00
2019-03-01T21:55:06.310Z,30.63
2019-03-01T21:57:35.144Z,34.47
2019-03-01T22:00:04.495Z,35.10
2019-03-01T22:02:33.257Z,37.37
2019-03-01T22:05:02.050Z,39.67
2019-03-01T22:07:33.688Z,36.00
2019-03-01T22:10:01.695Z,35.37
2019-03-01T22:12:30.521Z,34.47
2019-03-01T22:14:59.561Z,29.27
2019-03-01T22:17:28.326Z,31.47
2019-03-01T22:19:57.110Z,37.27
2019-03-01T22:22:26.214Z,34.83
2019-03-01T22:24:55.017Z,36.60
2019-03-01T22:27:25.291Z,38.33
2019-03-01T22:29:54.282Z,41.70
2019-03-01T22:32:23.050Z,35.97
2019-03-01T22:34:51.828Z,42.10
2019-03-01T22:37:20.885Z,38.63
2019-03-01T22:39:51.451Z,38.90
2019-03-01T22:42:20.146Z,42.93
2019-03-01T22:44:48.922Z,35.37
2019-03-01T22:47:17.690Z,38.87
2019-03-01T22:49:46.800Z,37.03
2019-03-01T22:52:15.866Z,41.43
2019-03-01T22:54:44.969Z,45.57
2019-03-01T22:57:13.745Z,47.03
2019-03-01T22:59:43.621Z,43.80
2019-03-01T23:02:15.890Z,42.83
2019-03-01T23:04:44.738Z,49.43
2019-03-01T23:07:13.505Z,49.20
2019-03-01T23:09:42.676Z,51.20
2019-03-01T23:12:14.756Z,44.17
2019-03-01T23:14:43.407Z,47.17
2019-03-01T23:17:12.191Z,44.60
2019-03-01T23:19:40.949Z,53.23
2019-03-01T23:22:11.030Z,44.10
2019-03-01T23:24:40.310Z,43.00
2019-03-01T23:27:09.155Z,47.73
2019-03-01T23:29:37.921Z,45.57
2019-03-01T23:32:06.770Z,49.53
2019-03-01T23:34:38.819Z,48.77
2019-03-01T23:37:06.033Z,46.43
2019-03-01T23:39:34.895Z,48.50
2019-03-01T23:42:03.732Z,45.67
2019-03-01T23:44:32.511Z,45.90
2019-03-01T23:47:02.818Z,45.73
2019-03-01T23:49:31.809Z,48.47
2019-03-01T23:52:00.586Z,49.73
2019-03-01T23:54:29.350Z,49.73
2019-03-01T23:56:58.117Z,51.13
2019-03-01T23:59:27.554Z,49.83
